SARF/FMA METAR and TAF weather

Enter ICAO airport designator
Station Type Date Time Source
SARF METAR 2022/06/30 02:00 UTC NOAA

SARF 300200Z 05007KT CAVOK 12/10 Q1015


Station Type Date Time Source
SARF Decoded METAR 2022/06/30 02:00 UTC NOAA

Formosa Aerodrome, Argentina (SARF) 26-12S 058-14W 60M
Jun 29, 2022 - 10:00 PM EDT / 2022.06.30 0200 UTC
Wind: from the NE (050 degrees) at 8 MPH (7 KT):0
Visibility: greater than 7 mile(s):0
Temperature: 53 F (12 C)
Dew Point: 50 F (10 C)
Relative Humidity: 87%
Pressure (altimeter): 29.97 in. Hg (1015 hPa)
ob: SARF 300200Z 05007KT CAVOK 12/10 Q1015
cycle: 2

Station Type Date Time Source
SARF TAF 2022/06/29 18:18 UTC NOAA

TAF SARF 291700Z 2918/3018 05010KT 9999 SCT020 TX20/3017Z TN04/3010Z
BECMG 3002/3004 CAVOK
BECMG 3009/3012 2000 BR NSC

Example: see airport list